Time;durP1;ratioP1;P1;durP2;ratioP2;P2;SDS_P1;SDS_P2;PMS_P1;PMS_P2;Temp;Humidity;BMP_temperature;BMP_pressure;BME280_temperature;BME280_humidity;BME280_pressure;Samples;Min_cycle;Max_cycle;Signal;HPM_P1;HPM_P2
2022/04/14 00:01:36;;;;;;;1.27;1.23;;;;;;;;;;4919210;29;20445;-76
2022/04/14 00:04:01;;;;;;;2.83;1.42;;;;;;;;;;4936510;29;20498;-76
2022/04/14 00:06:27;;;;;;;1.60;1.50;;;;;;;;;;4935552;29;20358;-77
2022/04/14 00:08:55;;;;;;;1.38;1.17;;;;;;;;;;4934723;29;20059;-77
2022/04/14 00:11:23;;;;;;;3.72;2.78;;;;;;;;;;4950612;29;20027;-76
2022/04/14 00:13:48;;;;;;;1.27;1.17;;;;;;;;;;4922401;29;20023;-76
2022/04/14 00:16:14;;;;;;;1.80;1.38;;;;;;;;;;4936479;29;20028;-77
2022/04/14 00:18:39;;;;;;;4.13;2.10;;;;;;;;;;4935192;29;20024;-77
2022/04/14 00:21:07;;;;;;;3.00;1.38;;;;;;;;;;4925095;29;20031;-77
2022/04/14 00:23:32;;;;;;;1.58;1.48;;;;;;;;;;4935481;29;20133;-77
2022/04/14 00:26:00;;;;;;;1.85;1.42;;;;;;;;;;4935394;29;20446;-77
2022/04/14 00:28:25;;;;;;;2.33;1.75;;;;;;;;;;4928546;29;20422;-76
2022/04/14 00:30:50;;;;;;;1.40;1.13;;;;;;;;;;4935526;29;20035;-77
2022/04/14 00:33:16;;;;;;;1.25;1.13;;;;;;;;;;4935507;29;20065;-77
2022/04/14 00:35:43;;;;;;;5.15;1.73;;;;;;;;;;4935740;29;20070;-77
2022/04/14 00:38:09;;;;;;;2.53;1.70;;;;;;;;;;4932699;29;20032;-77
2022/04/14 00:40:34;;;;;;;1.42;1.33;;;;;;;;;;4935974;29;20044;-77
2022/04/14 00:42:59;;;;;;;3.47;2.05;;;;;;;;;;4934881;29;20051;-77
2022/04/14 00:45:25;;;;;;;1.10;0.75;;;;;;;;;;4932225;29;20031;-77
2022/04/14 00:47:52;;;;;;;1.15;1.00;;;;;;;;;;4922651;29;20024;-77
2022/04/14 00:50:22;;;;;;;1.85;1.33;;;;;;;;;;4936870;29;20070;-78
2022/04/14 00:52:47;;;;;;;0.50;0.50;;;;;;;;;;4939063;29;20028;-77
2022/04/14 00:55:14;;;;;;;2.08;1.90;;;;;;;;;;4938656;29;20039;-75
2022/04/14 00:57:39;;;;;;;0.65;0.65;;;;;;;;;;4936589;29;20062;-77
2022/04/14 01:00:06;;;;;;;0.98;0.95;;;;;;;;;;4939007;29;20111;-76
2022/04/14 01:02:32;;;;;;;3.08;2.08;;;;;;;;;;4938699;29;20039;-76
2022/04/14 01:04:58;;;;;;;1.67;1.58;;;;;;;;;;4938929;29;20063;-76
2022/04/14 01:07:24;;;;;;;0.40;0.40;;;;;;;;;;4939646;29;20024;-76
2022/04/14 01:09:52;;;;;;;1.10;1.00;;;;;;;;;;4938829;29;20039;-76
2022/04/14 01:12:18;;;;;;;2.08;1.42;;;;;;;;;;4939316;29;20044;-77
2022/04/14 01:14:43;;;;;;;1.52;1.20;;;;;;;;;;4937780;29;20046;-77
2022/04/14 01:17:12;;;;;;;0.80;0.40;;;;;;;;;;4938892;29;20042;-76
2022/04/14 01:19:41;;;;;;;2.70;1.52;;;;;;;;;;4938876;29;20121;-76
2022/04/14 01:22:18;;;;;;;0.35;0.30;;;;;;;;;;4938038;29;20361;-76
2022/04/14 01:24:43;;;;;;;0.60;0.60;;;;;;;;;;4938851;29;20122;-76
2022/04/14 01:27:12;;;;;;;0.43;0.43;;;;;;;;;;4938071;29;20111;-76
2022/04/14 01:29:37;;;;;;;0.93;0.77;;;;;;;;;;4937914;29;20569;-75
2022/04/14 01:32:03;;;;;;;3.28;1.17;;;;;;;;;;4939478;29;20086;-75
2022/04/14 01:34:31;;;;;;;0.70;0.57;;;;;;;;;;4937736;29;20341;-76
2022/04/14 01:37:00;;;;;;;0.75;0.63;;;;;;;;;;4938332;29;20620;-76
2022/04/14 01:39:31;;;;;;;0.50;0.50;;;;;;;;;;4937053;29;20039;-76
2022/04/14 01:41:59;;;;;;;0.82;0.82;;;;;;;;;;4936604;29;20035;-75
2022/04/14 01:44:25;;;;;;;1.20;0.60;;;;;;;;;;4928654;29;20038;-76
2022/04/14 01:46:52;;;;;;;1.15;0.88;;;;;;;;;;4936893;29;20023;-75
2022/04/14 01:49:18;;;;;;;0.43;0.38;;;;;;;;;;4938273;29;20032;-76
2022/04/14 01:51:43;;;;;;;1.17;0.85;;;;;;;;;;4937785;29;20023;-77
2022/04/14 01:54:08;;;;;;;2.40;1.08;;;;;;;;;;4938272;29;20421;-76
2022/04/14 01:56:34;;;;;;;0.75;0.50;;;;;;;;;;4938769;29;20027;-76
2022/04/14 01:59:01;;;;;;;0.17;0.17;;;;;;;;;;4936900;29;20028;-77
2022/04/14 02:01:28;;;;;;;0.95;0.95;;;;;;;;;;4935114;29;20103;-77
2022/04/14 02:03:54;;;;;;;3.20;0.68;;;;;;;;;;4936863;29;20034;-76
2022/04/14 02:06:19;;;;;;;0.73;0.73;;;;;;;;;;4937518;29;20023;-78
2022/04/14 02:08:45;;;;;;;9.02;1.02;;;;;;;;;;4926960;29;20045;-77
2022/04/14 02:11:10;;;;;;;1.40;1.17;;;;;;;;;;4936607;29;20023;-77
2022/04/14 02:13:36;;;;;;;1.75;1.02;;;;;;;;;;4933848;29;20028;-77
2022/04/14 02:16:05;;;;;;;3.75;1.42;;;;;;;;;;4919681;29;20464;-78
2022/04/14 02:18:31;;;;;;;1.92;1.17;;;;;;;;;;4918201;29;20032;-77
2022/04/14 02:20:56;;;;;;;1.00;0.98;;;;;;;;;;4933264;29;20442;-77
2022/04/14 02:23:27;;;;;;;1.05;0.98;;;;;;;;;;4929937;29;20109;-77
2022/04/14 02:25:55;;;;;;;0.98;0.70;;;;;;;;;;4937711;29;20015;-78
2022/04/14 02:28:23;;;;;;;2.47;2.03;;;;;;;;;;4936352;29;20031;-78
2022/04/14 02:30:48;;;;;;;0.88;0.88;;;;;;;;;;4936905;29;20067;-77
2022/04/14 02:33:14;;;;;;;1.52;1.40;;;;;;;;;;4935945;29;20066;-77
2022/04/14 02:35:40;;;;;;;1.48;1.38;;;;;;;;;;4936682;29;20044;-76
2022/04/14 02:38:07;;;;;;;1.70;1.60;;;;;;;;;;4936735;29;20028;-77
2022/04/14 02:40:33;;;;;;;0.82;0.82;;;;;;;;;;4927909;29;20047;-77
2022/04/14 02:42:58;;;;;;;2.00;1.10;;;;;;;;;;4929599;29;20334;-76
2022/04/14 02:45:27;;;;;;;1.02;0.98;;;;;;;;;;4935022;29;20440;-77
2022/04/14 02:47:55;;;;;;;2.22;1.92;;;;;;;;;;4924495;29;20353;-76
2022/04/14 02:50:21;;;;;;;0.73;0.73;;;;;;;;;;4936776;29;20031;-76
2022/04/14 02:52:47;;;;;;;3.28;2.25;;;;;;;;;;4935547;29;20032;-75
2022/04/14 02:55:13;;;;;;;1.52;1.42;;;;;;;;;;4918594;29;20040;-75
2022/04/14 02:57:38;;;;;;;1.05;1.05;;;;;;;;;;4918865;29;20035;-75
2022/04/14 03:00:11;;;;;;;2.00;1.27;;;;;;;;;;4930448;29;20051;-76
2022/04/14 03:02:38;;;;;;;1.55;1.42;;;;;;;;;;4933938;29;20114;-76
2022/04/14 03:05:04;;;;;;;1.38;1.27;;;;;;;;;;4935362;29;20023;-76
2022/04/14 03:07:32;;;;;;;1.77;1.38;;;;;;;;;;4937475;29;20591;-76
2022/04/14 03:09:57;;;;;;;0.52;0.52;;;;;;;;;;4928702;29;20027;-78
2022/04/14 03:12:22;;;;;;;0.70;0.70;;;;;;;;;;4935925;29;20434;-78
2022/04/14 03:14:48;;;;;;;2.25;1.85;;;;;;;;;;4933075;29;20050;-78
2022/04/14 03:17:14;;;;;;;3.97;1.55;;;;;;;;;;4918131;29;20028;-78
2022/04/14 03:19:41;;;;;;;2.45;1.60;;;;;;;;;;4917433;29;20191;-78
2022/04/14 03:22:10;;;;;;;5.50;3.53;;;;;;;;;;4934697;29;20047;-78
2022/04/14 03:24:35;;;;;;;1.55;1.38;;;;;;;;;;4935934;29;20035;-77
2022/04/14 03:27:00;;;;;;;2.42;2.22;;;;;;;;;;4929415;29;20037;-77
2022/04/14 03:29:28;;;;;;;2.75;2.45;;;;;;;;;;4923901;29;20053;-78
2022/04/14 03:31:53;;;;;;;1.55;1.45;;;;;;;;;;4925795;29;20039;-78
2022/04/14 03:34:19;;;;;;;2.05;1.88;;;;;;;;;;4942760;28;20027;-77
2022/04/14 03:36:44;;;;;;;3.17;2.38;;;;;;;;;;4932086;29;20452;-76
2022/04/14 03:39:09;;;;;;;1.58;1.48;;;;;;;;;;4927895;29;20034;-76
2022/04/14 03:41:35;;;;;;;3.20;1.75;;;;;;;;;;4919672;29;20043;-75
2022/04/14 03:44:00;;;;;;;1.67;1.58;;;;;;;;;;4935079;29;20485;-76
2022/04/14 03:46:28;;;;;;;2.25;2.08;;;;;;;;;;4935404;29;20331;-75
2022/04/14 03:48:56;;;;;;;1.48;1.38;;;;;;;;;;4936263;29;20038;-76
2022/04/14 03:51:23;;;;;;;3.17;2.88;;;;;;;;;;4937120;29;20070;-76
2022/04/14 03:53:51;;;;;;;3.33;2.22;;;;;;;;;;4935920;29;20519;-75
2022/04/14 03:56:19;;;;;;;2.22;0.80;;;;;;;;;;4936939;29;20227;-77
2022/04/14 03:58:44;;;;;;;2.88;1.98;;;;;;;;;;4935361;29;20042;-76
2022/04/14 04:01:09;;;;;;;4.25;1.60;;;;;;;;;;4924140;29;20023;-77
2022/04/14 04:03:35;;;;;;;4.25;2.70;;;;;;;;;;4928886;29;20035;-77
2022/04/14 04:06:00;;;;;;;1.02;1.02;;;;;;;;;;4922035;29;20028;-76
2022/04/14 04:08:25;;;;;;;1.60;1.40;;;;;;;;;;4939661;28;20632;-76
2022/04/14 04:10:53;;;;;;;2.95;2.28;;;;;;;;;;4935444;29;20453;-77
2022/04/14 04:13:18;;;;;;;2.78;1.63;;;;;;;;;;4934346;29;20056;-76
2022/04/14 04:15:44;;;;;;;2.30;1.67;;;;;;;;;;4936250;29;20445;-76
2022/04/14 04:18:09;;;;;;;2.13;1.92;;;;;;;;;;4936192;29;20031;-77
2022/04/14 04:20:39;;;;;;;4.95;1.92;;;;;;;;;;4933799;29;20074;-76
2022/04/14 04:23:05;;;;;;;1.15;1.13;;;;;;;;;;4936323;29;20322;-76
2022/04/14 04:25:34;;;;;;;1.42;0.98;;;;;;;;;;4939337;29;20035;-76
2022/04/14 04:28:00;;;;;;;2.55;2.00;;;;;;;;;;4922788;29;20024;-76
2022/04/14 04:30:25;;;;;;;1.90;1.15;;;;;;;;;;4939736;29;20380;-77
2022/04/14 04:32:51;;;;;;;4.13;2.72;;;;;;;;;;4939828;29;20031;-77
2022/04/14 04:35:16;;;;;;;2.60;2.33;;;;;;;;;;4938825;29;20035;-75
2022/04/14 04:37:43;;;;;;;3.85;2.33;;;;;;;;;;4939399;29;20453;-76
2022/04/14 04:40:09;;;;;;;3.42;2.70;;;;;;;;;;4939482;29;20039;-76
2022/04/14 04:42:35;;;;;;;2.28;2.03;;;;;;;;;;4932137;29;20136;-77
2022/04/14 04:45:00;;;;;;;4.15;2.38;;;;;;;;;;4933045;29;20035;-76
2022/04/14 04:47:26;;;;;;;3.63;3.33;;;;;;;;;;4939502;29;20095;-78
2022/04/14 04:49:51;;;;;;;2.47;1.73;;;;;;;;;;4938013;29;20032;-77
2022/04/14 04:52:16;;;;;;;2.17;1.98;;;;;;;;;;4938638;29;20126;-76
2022/04/14 04:54:42;;;;;;;6.60;3.65;;;;;;;;;;4939829;29;20140;-77
2022/04/14 04:57:16;;;;;;;2.55;2.35;;;;;;;;;;4939474;29;20433;-76
2022/04/14 04:59:41;;;;;;;2.22;1.80;;;;;;;;;;4938320;29;20031;-76
2022/04/14 05:02:12;;;;;;;4.32;3.10;;;;;;;;;;4938213;29;20480;-76
2022/04/14 05:04:40;;;;;;;3.10;2.65;;;;;;;;;;4939771;29;20067;-76
2022/04/14 05:07:05;;;;;;;3.70;3.20;;;;;;;;;;4938406;29;20034;-77
2022/04/14 05:09:33;;;;;;;4.63;2.60;;;;;;;;;;4938430;29;20028;-76
2022/04/14 05:11:58;;;;;;;4.65;2.50;;;;;;;;;;4939340;29;20035;-77
2022/04/14 05:14:23;;;;;;;5.68;3.08;;;;;;;;;;4938233;29;20032;-77
2022/04/14 05:16:49;;;;;;;6.53;4.28;;;;;;;;;;4938465;29;20035;-76
2022/04/14 05:19:14;;;;;;;3.70;2.33;;;;;;;;;;4939701;29;20457;-77
2022/04/14 05:21:42;;;;;;;2.35;2.15;;;;;;;;;;4918367;29;20434;-77
2022/04/14 05:24:07;;;;;;;2.65;1.73;;;;;;;;;;4937269;29;20487;-77
2022/04/14 05:26:32;;;;;;;7.70;2.35;;;;;;;;;;4935056;29;20118;-77
2022/04/14 05:29:00;;;;;;;5.55;3.42;;;;;;;;;;4938731;29;20109;-78
2022/04/14 05:31:26;;;;;;;2.50;2.08;;;;;;;;;;4938166;29;20035;-77
2022/04/14 05:33:51;;;;;;;3.55;2.38;;;;;;;;;;4939337;29;20019;-77
2022/04/14 05:36:21;;;;;;;4.45;3.42;;;;;;;;;;4937752;29;20331;-77
2022/04/14 05:38:49;;;;;;;3.67;2.92;;;;;;;;;;4938976;29;20046;-77
2022/04/14 05:41:16;;;;;;;2.53;2.33;;;;;;;;;;4938521;29;20461;-77
2022/04/14 05:43:42;;;;;;;2.10;1.70;;;;;;;;;;4920708;29;20036;-78
2022/04/14 05:46:07;;;;;;;5.18;2.40;;;;;;;;;;4919172;29;20031;-77
2022/04/14 05:48:32;;;;;;;4.78;2.88;;;;;;;;;;4919081;29;20071;-77
2022/04/14 05:51:00;;;;;;;4.57;2.42;;;;;;;;;;4947848;29;20038;-77
2022/04/14 05:53:26;;;;;;;2.58;2.15;;;;;;;;;;4937724;29;20036;-77
2022/04/14 05:55:54;;;;;;;3.80;2.88;;;;;;;;;;4938922;29;20043;-77
2022/04/14 05:58:20;;;;;;;2.15;1.98;;;;;;;;;;4938038;29;20446;-77
2022/04/14 06:00:45;;;;;;;2.40;2.05;;;;;;;;;;4937756;29;20042;-76
2022/04/14 06:03:11;;;;;;;2.55;2.20;;;;;;;;;;4937353;29;20182;-77
2022/04/14 06:05:36;;;;;;;1.98;1.60;;;;;;;;;;4938728;29;20445;-76
2022/04/14 06:08:02;;;;;;;3.35;2.50;;;;;;;;;;4937740;29;20074;-77
2022/04/14 06:10:30;;;;;;;4.25;2.75;;;;;;;;;;4921654;29;20038;-76
2022/04/14 06:12:56;;;;;;;7.03;4.25;;;;;;;;;;4938101;29;20090;-76
2022/04/14 06:15:22;;;;;;;5.68;2.72;;;;;;;;;;4937557;29;20509;-76
2022/04/14 06:17:49;;;;;;;5.35;3.85;;;;;;;;;;4935419;29;20114;-76
2022/04/14 06:20:15;;;;;;;5.35;4.15;;;;;;;;;;4929519;29;20034;-77
2022/04/14 06:22:44;;;;;;;5.45;3.65;;;;;;;;;;4927899;29;20032;-76
2022/04/14 06:25:16;;;;;;;3.38;3.08;;;;;;;;;;4928608;29;20042;-78
2022/04/14 06:27:45;;;;;;;;;;;;;;;;;;4928802;29;20094;-78
2022/04/14 06:30:12;;;;;;;9.20;3.10;;;;;;;;;;4933647;29;19954;-77
2022/04/14 06:32:40;;;;;;;9.80;4.97;;;;;;;;;;4936839;29;20051;-76
2022/04/14 06:35:07;;;;;;;6.78;4.57;;;;;;;;;;4925135;29;20055;-77
2022/04/14 06:37:33;;;;;;;4.57;3.47;;;;;;;;;;4929804;29;20031;-78
2022/04/14 06:39:59;;;;;;;4.70;3.97;;;;;;;;;;4935346;29;20036;-76
2022/04/14 06:42:24;;;;;;;7.38;4.93;;;;;;;;;;4930307;29;20094;-77
2022/04/14 06:44:49;;;;;;;6.70;3.95;;;;;;;;;;4930046;29;20068;-77
2022/04/14 06:47:15;;;;;;;3.92;3.20;;;;;;;;;;4925170;29;20048;-78
2022/04/14 06:49:40;;;;;;;7.03;4.50;;;;;;;;;;4935653;29;20039;-79
2022/04/14 06:52:06;;;;;;;3.65;3.20;;;;;;;;;;4938720;29;20031;-76
2022/04/14 06:54:33;;;;;;;3.70;3.25;;;;;;;;;;4936649;29;20027;-77
2022/04/14 06:56:58;;;;;;;5.68;2.67;;;;;;;;;;4933988;29;20127;-77
2022/04/14 06:59:27;;;;;;;3.53;3.00;;;;;;;;;;4937153;29;20396;-78
2022/04/14 07:01:53;;;;;;;4.05;3.65;;;;;;;;;;4919491;29;21624;-77
2022/04/14 07:04:18;;;;;;;4.05;3.08;;;;;;;;;;4927090;29;20047;-76
2022/04/14 07:06:44;;;;;;;4.88;4.43;;;;;;;;;;4919553;29;20028;-77
2022/04/14 07:09:09;;;;;;;6.13;5.03;;;;;;;;;;4934544;29;20079;-77
2022/04/14 07:11:35;;;;;;;4.93;4.07;;;;;;;;;;4936181;29;20027;-77
2022/04/14 07:14:01;;;;;;;6.32;3.72;;;;;;;;;;4933281;29;20030;-77
2022/04/14 07:16:28;;;;;;;4.75;3.95;;;;;;;;;;4951575;28;20035;-78
2022/04/14 07:18:54;;;;;;;9.57;5.57;;;;;;;;;;4937115;29;20023;-77
2022/04/14 07:21:22;;;;;;;7.82;4.13;;;;;;;;;;4920750;29;20438;-76
2022/04/14 07:23:47;;;;;;;7.03;4.82;;;;;;;;;;4936573;29;20035;-76
2022/04/14 07:26:14;;;;;;;5.32;4.25;;;;;;;;;;4937324;29;20023;-76
2022/04/14 07:28:42;;;;;;;6.18;3.67;;;;;;;;;;4936718;29;20035;-75
2022/04/14 07:31:12;;;;;;;10.57;7.45;;;;;;;;;;4936381;29;20032;-77
2022/04/14 07:33:41;;;;;;;5.65;4.68;;;;;;;;;;4936123;29;20130;-76
2022/04/14 07:36:07;;;;;;;10.95;4.78;;;;;;;;;;4936046;29;20094;-75
2022/04/14 07:38:34;;;;;;;10.80;4.75;;;;;;;;;;4937120;29;20027;-75
2022/04/14 07:41:05;;;;;;;4.70;3.58;;;;;;;;;;4937362;29;20023;-78
2022/04/14 07:43:32;;;;;;;9.55;7.80;;;;;;;;;;4919701;29;20365;-77
2022/04/14 07:45:57;;;;;;;7.45;2.92;;;;;;;;;;4901562;29;20047;-77
2022/04/14 07:48:25;;;;;;;5.53;5.03;;;;;;;;;;4932797;29;20343;-77
2022/04/14 07:50:51;;;;;;;7.57;5.13;;;;;;;;;;4935719;29;20043;-76
2022/04/14 07:53:17;;;;;;;5.47;4.63;;;;;;;;;;4936542;29;20043;-76
2022/04/14 07:55:45;;;;;;;4.30;3.90;;;;;;;;;;4937044;29;20338;-76
2022/04/14 07:58:10;;;;;;;8.70;6.88;;;;;;;;;;4935017;29;20115;-76
2022/04/14 08:00:37;;;;;;;10.82;7.20;;;;;;;;;;4938932;29;20098;-77
2022/04/14 08:03:04;;;;;;;10.25;3.58;;;;;;;;;;4940125;29;20079;-77
2022/04/14 08:05:34;;;;;;;7.03;5.07;;;;;;;;;;4939158;29;20027;-76
2022/04/14 08:08:03;;;;;;;12.82;5.70;;;;;;;;;;4940746;29;20103;-76
2022/04/14 08:10:28;;;;;;;6.88;4.97;;;;;;;;;;4939157;29;20032;-76
2022/04/14 08:12:54;;;;;;;4.72;3.60;;;;;;;;;;4939816;29;20052;-76
2022/04/14 08:15:20;;;;;;;12.93;5.72;;;;;;;;;;4939589;29;20037;-77
2022/04/14 08:17:49;;;;;;;10.60;5.30;;;;;;;;;;4940118;29;20036;-76
2022/04/14 08:20:15;;;;;;;5.30;3.92;;;;;;;;;;4921108;29;20351;-77
2022/04/14 08:22:45;;;;;;;6.95;5.65;;;;;;;;;;4936526;29;20023;-76
2022/04/14 08:25:12;;;;;;;4.68;3.80;;;;;;;;;;4920671;29;20024;-76
2022/04/14 08:27:37;;;;;;;10.77;6.18;;;;;;;;;;4917071;29;20031;-77
2022/04/14 08:30:03;;;;;;;8.30;4.70;;;;;;;;;;4939570;29;20398;-76
2022/04/14 08:32:31;;;;;;;7.38;4.00;;;;;;;;;;4939399;29;20039;-77
2022/04/14 08:34:58;;;;;;;10.68;5.40;;;;;;;;;;4939383;29;20043;-77
2022/04/14 08:37:24;;;;;;;7.40;5.63;;;;;;;;;;4919648;29;20032;-76
2022/04/14 08:39:49;;;;;;;7.53;5.50;;;;;;;;;;4921323;29;20343;-78
2022/04/14 08:42:21;;;;;;;11.02;6.25;;;;;;;;;;4935917;29;20031;-77
2022/04/14 08:44:49;;;;;;;7.07;5.93;;;;;;;;;;4920547;29;20141;-77
2022/04/14 08:47:20;;;;;;;6.72;4.63;;;;;;;;;;4935284;29;20043;-77
2022/04/14 08:49:48;;;;;;;7.50;5.55;;;;;;;;;;4939106;29;20455;-76
2022/04/14 08:52:15;;;;;;;7.75;4.85;;;;;;;;;;4939193;29;20054;-76
2022/04/14 08:54:43;;;;;;;10.52;5.53;;;;;;;;;;4939053;29;20422;-76
2022/04/14 08:57:13;;;;;;;7.20;5.22;;;;;;;;;;4938424;29;20027;-77
2022/04/14 08:59:47;;;;;;;7.28;4.53;;;;;;;;;;4937501;29;20043;-76
2022/04/14 09:02:17;;;;;;;11.95;5.82;;;;;;;;;;4939964;29;20039;-76
2022/04/14 09:04:43;;;;;;;9.13;4.90;;;;;;;;;;4939011;29;20362;-76
2022/04/14 09:07:11;;;;;;;4.70;3.95;;;;;;;;;;4938341;29;20034;-76
2022/04/14 09:09:37;;;;;;;6.53;4.35;;;;;;;;;;4938747;29;20350;-77
2022/04/14 09:12:08;;;;;;;7.38;3.65;;;;;;;;;;4937769;29;20030;-77
2022/04/14 09:14:37;;;;;;;4.63;3.40;;;;;;;;;;4939659;29;20401;-77
2022/04/14 09:17:06;;;;;;;4.15;3.35;;;;;;;;;;4938839;29;20024;-77
2022/04/14 09:19:34;;;;;;;10.73;4.22;;;;;;;;;;4939028;29;20066;-75
2022/04/14 09:22:02;;;;;;;4.45;3.67;;;;;;;;;;4939560;29;20031;-76
2022/04/14 09:24:57;;;;;;;4.50;3.20;;;;;;;;;;4937551;29;20437;-76
2022/04/14 09:27:25;;;;;;;6.50;4.00;;;;;;;;;;4917606;29;20420;-76
2022/04/14 09:29:52;;;;;;;4.30;3.90;;;;;;;;;;4939474;29;20111;-76
2022/04/14 09:32:31;;;;;;;4.65;3.20;;;;;;;;;;4937097;29;20063;-76
2022/04/14 09:34:59;;;;;;;4.88;3.83;;;;;;;;;;4937475;29;20705;-77
2022/04/14 09:37:25;;;;;;;7.90;4.80;;;;;;;;;;4939308;29;20028;-76
2022/04/14 09:39:55;;;;;;;2.08;1.98;;;;;;;;;;4922215;29;20027;-76
2022/04/14 09:42:39;;;;;;;5.15;2.80;;;;;;;;;;4939093;29;20039;-76
2022/04/14 09:45:25;;;;;;;4.07;2.88;;;;;;;;;;4932268;29;20028;-76
2022/04/14 09:47:52;;;;;;;6.25;4.32;;;;;;;;;;4936996;29;20454;-76
2022/04/14 09:50:34;;;;;;;6.38;3.90;;;;;;;;;;4922208;29;20381;-77
2022/04/14 09:52:59;;;;;;;3.25;2.75;;;;;;;;;;4938583;29;20031;-77
2022/04/14 09:55:25;;;;;;;4.07;3.47;;;;;;;;;;4939360;29;20533;-75
2022/04/14 09:58:16;;;;;;;5.57;3.25;;;;;;;;;;4938205;29;20035;-76
2022/04/14 10:00:47;;;;;;;3.72;3.42;;;;;;;;;;4938257;29;20051;-76
2022/04/14 10:03:17;;;;;;;2.65;2.17;;;;;;;;;;4931443;29;20047;-75
2022/04/14 10:05:45;;;;;;;4.85;3.97;;;;;;;;;;4923277;29;20087;-75
2022/04/14 10:08:10;;;;;;;7.53;4.10;;;;;;;;;;4938287;29;20443;-76
2022/04/14 10:10:39;;;;;;;11.05;4.95;;;;;;;;;;4938706;29;20063;-76
2022/04/14 10:13:07;;;;;;;4.10;3.22;;;;;;;;;;4915164;29;20441;-77
2022/04/14 10:15:39;;;;;;;7.38;3.92;;;;;;;;;;4933260;29;20035;-76
2022/04/14 10:18:09;;;;;;;10.60;3.58;;;;;;;;;;4934764;29;20091;-76
2022/04/14 10:20:36;;;;;;;6.65;4.85;;;;;;;;;;4937352;29;20032;-76
2022/04/14 10:23:02;;;;;;;4.60;3.05;;;;;;;;;;4933981;29;20031;-76
2022/04/14 10:25:29;;;;;;;4.05;3.42;;;;;;;;;;4937535;29;20036;-76
2022/04/14 10:27:57;;;;;;;5.80;3.28;;;;;;;;;;4926870;29;20016;-76
2022/04/14 10:30:23;;;;;;;5.05;4.38;;;;;;;;;;4924412;29;20027;-77
2022/04/14 10:32:49;;;;;;;4.32;3.80;;;;;;;;;;4932892;29;20023;-76
2022/04/14 10:35:14;;;;;;;4.07;2.70;;;;;;;;;;4924661;29;20446;-76
2022/04/14 10:37:45;;;;;;;3.10;2.88;;;;;;;;;;4926193;29;20028;-76
2022/04/14 10:40:13;;;;;;;4.60;3.58;;;;;;;;;;4926132;29;20039;-81
2022/04/14 10:42:46;;;;;;;4.47;2.78;;;;;;;;;;4935390;29;20428;-82
2022/04/14 10:45:22;;;;;;;6.78;2.50;;;;;;;;;;4936846;29;20042;-80
2022/04/14 10:47:50;;;;;;;4.47;1.95;;;;;;;;;;4947853;29;20027;-80
2022/04/14 10:50:20;;;;;;;3.35;2.95;;;;;;;;;;4929115;29;20035;-79
2022/04/14 10:53:04;;;;;;;5.00;2.78;;;;;;;;;;4935088;29;20043;-79
2022/04/14 10:55:46;;;;;;;2.78;2.40;;;;;;;;;;4935820;29;20032;-78
2022/04/14 10:58:38;;;;;;;3.00;2.47;;;;;;;;;;4936297;29;20030;-80
2022/04/14 11:01:13;;;;;;;1.58;1.25;;;;;;;;;;4933841;29;20031;-79
2022/04/14 11:03:49;;;;;;;2.70;2.25;;;;;;;;;;4922497;29;20035;-81
2022/04/14 11:06:41;;;;;;;3.50;2.25;;;;;;;;;;4949290;29;20040;-79
2022/04/14 11:09:07;;;;;;;2.40;1.80;;;;;;;;;;4920200;29;20489;-80
2022/04/14 11:12:00;;;;;;;2.67;1.55;;;;;;;;;;4927336;29;20039;-79
2022/04/14 11:14:26;;;;;;;3.35;2.30;;;;;;;;;;4925847;29;20034;-80
2022/04/14 11:16:54;;;;;;;2.33;1.33;;;;;;;;;;4938059;29;20114;-79
2022/04/14 11:19:22;;;;;;;1.98;1.60;;;;;;;;;;4937112;29;20039;-80
2022/04/14 11:24:41;;;;;;;4.05;2.15;;;;;;;;;;4937611;29;20032;-80
2022/04/14 11:27:28;;;;;;;3.10;2.08;;;;;;;;;;4935437;29;20051;-79
2022/04/14 11:29:57;;;;;;;15.00;2.55;;;;;;;;;;4926905;29;20031;-80
2022/04/14 11:32:39;;;;;;;2.42;2.05;;;;;;;;;;4931511;29;20072;-80
2022/04/14 11:35:08;;;;;;;1.92;1.52;;;;;;;;;;4947811;28;20023;-80
2022/04/14 11:37:41;;;;;;;1.55;1.20;;;;;;;;;;4932909;29;20107;-79
2022/04/14 11:40:17;;;;;;;1.15;1.08;;;;;;;;;;4936154;29;20059;-78
2022/04/14 11:42:49;;;;;;;1.60;1.23;;;;;;;;;;4936467;29;20028;-79
2022/04/14 11:45:24;;;;;;;3.00;1.23;;;;;;;;;;4917332;29;20031;-78
2022/04/14 11:47:55;;;;;;;1.63;1.27;;;;;;;;;;4928834;29;20016;-79
2022/04/14 11:50:24;;;;;;;1.42;1.05;;;;;;;;;;4930777;29;20040;-79
2022/04/14 11:52:56;;;;;;;1.15;1.13;;;;;;;;;;4928077;29;20024;-79
2022/04/14 11:55:34;;;;;;;2.35;1.25;;;;;;;;;;4936684;29;20027;-79
2022/04/14 11:58:06;;;;;;;1.40;1.17;;;;;;;;;;4937021;29;20458;-78
2022/04/14 12:00:41;;;;;;;;;;;;;;;;;;4936170;29;20074;-79
2022/04/14 12:03:06;;;;;;;2.72;1.35;;;;;;;;;;4938245;29;19969;-79
2022/04/14 12:05:31;;;;;;;0.60;0.60;;;;;;;;;;4940954;29;20307;-79
2022/04/14 12:08:10;;;;;;;0.70;0.60;;;;;;;;;;4927046;29;20469;-79
2022/04/14 12:10:36;;;;;;;1.33;1.23;;;;;;;;;;4928882;29;20038;-80
2022/04/14 12:13:05;;;;;;;1.30;1.20;;;;;;;;;;4935025;29;20016;-81
2022/04/14 12:15:35;;;;;;;0.95;0.93;;;;;;;;;;4933205;29;20098;-80
2022/04/14 12:18:05;;;;;;;2.83;2.08;;;;;;;;;;4937325;29;20027;-79
2022/04/14 12:20:37;;;;;;;2.05;1.63;;;;;;;;;;4929020;29;20032;-81
2022/04/14 12:23:03;;;;;;;2.67;1.27;;;;;;;;;;4936800;29;20114;-80
2022/04/14 12:25:28;;;;;;;0.90;0.90;;;;;;;;;;4935657;29;20139;-81
2022/04/14 12:27:54;;;;;;;1.42;1.10;;;;;;;;;;4933021;29;20035;-79
2022/04/14 12:30:21;;;;;;;2.78;1.17;;;;;;;;;;4917274;29;20032;-80
2022/04/14 12:32:59;;;;;;;0.90;0.85;;;;;;;;;;4933833;29;20441;-80
2022/04/14 12:35:30;;;;;;;1.10;0.98;;;;;;;;;;4922971;29;20038;-80
2022/04/14 12:37:55;;;;;;;;;;;;;;;;;;4933479;29;20024;-80
2022/04/14 12:40:24;;;;;;;0.95;0.50;;;;;;;;;;4930342;29;20363;-80
2022/04/14 12:42:52;;;;;;;0.65;0.40;;;;;;;;;;4915268;29;20032;-81
2022/04/14 12:45:17;;;;;;;0.85;0.70;;;;;;;;;;4935119;29;20039;-81
2022/04/14 12:47:44;;;;;;;2.03;1.13;;;;;;;;;;4938841;29;20034;-80
2022/04/14 12:50:12;;;;;;;0.50;0.50;;;;;;;;;;4938355;29;20110;-80
2022/04/14 12:52:37;;;;;;;0.95;0.70;;;;;;;;;;4939669;29;20028;-80
2022/04/14 12:55:04;;;;;;;0.20;0.20;;;;;;;;;;4939290;29;20024;-82
2022/04/14 12:57:33;;;;;;;0.77;0.70;;;;;;;;;;4923156;29;20042;-81
2022/04/14 13:00:14;;;;;;;0.95;0.50;;;;;;;;;;4940311;29;20086;-81
2022/04/14 13:02:41;;;;;;;0.40;0.40;;;;;;;;;;4940003;29;20051;-80
2022/04/14 13:05:10;;;;;;;2.53;0.32;;;;;;;;;;4929977;29;20327;-82
2022/04/14 13:07:55;;;;;;;0.45;0.45;;;;;;;;;;4939224;29;20152;-80
2022/04/14 13:10:24;;;;;;;0.30;0.30;;;;;;;;;;4939434;29;20027;-81
2022/04/14 13:12:52;;;;;;;0.32;0.30;;;;;;;;;;4937805;29;20027;-80
2022/04/14 13:15:19;;;;;;;0.25;0.25;;;;;;;;;;4938586;29;20040;-80
2022/04/14 13:17:47;;;;;;;0.43;0.32;;;;;;;;;;4938011;29;20054;-80
2022/04/14 13:20:45;;;;;;;0.32;0.30;;;;;;;;;;4937750;29;20381;-80
2022/04/14 13:23:11;;;;;;;0.43;0.43;;;;;;;;;;4938586;29;20035;-80
2022/04/14 13:25:40;;;;;;;0.45;0.45;;;;;;;;;;4938916;29;20028;-80
2022/04/14 13:28:08;;;;;;;0.70;0.35;;;;;;;;;;4932364;29;20016;-79
2022/04/14 13:30:33;;;;;;;1.40;0.90;;;;;;;;;;4917031;29;20042;-79
2022/04/14 13:32:59;;;;;;;0.70;0.70;;;;;;;;;;4935971;29;20442;-80
2022/04/14 13:35:25;;;;;;;0.52;0.52;;;;;;;;;;4937640;29;20035;-80
2022/04/14 13:37:51;;;;;;;0.43;0.40;;;;;;;;;;4937033;29;20031;-82
2022/04/14 13:40:18;;;;;;;1.48;0.80;;;;;;;;;;4930167;29;20044;-81
2022/04/14 13:42:44;;;;;;;1.00;0.68;;;;;;;;;;4937151;29;20036;-80
2022/04/14 13:45:10;;;;;;;0.52;0.52;;;;;;;;;;4934063;29;20415;-81
2022/04/14 13:47:40;;;;;;;0.68;0.60;;;;;;;;;;4935328;29;20023;-79
2022/04/14 13:50:14;;;;;;;0.50;0.30;;;;;;;;;;4936146;29;20023;-80
2022/04/14 13:52:39;;;;;;;0.88;0.70;;;;;;;;;;4933549;29;20032;-80
2022/04/14 13:55:09;;;;;;;1.48;0.63;;;;;;;;;;4939920;29;20357;-80
2022/04/14 13:57:35;;;;;;;0.03;0.03;;;;;;;;;;4937614;29;20059;-80
2022/04/14 14:00:01;;;;;;;0.93;0.88;;;;;;;;;;4936252;29;20036;-80
2022/04/14 14:02:29;;;;;;;1.05;1.05;;;;;;;;;;4923777;29;20051;-81
2022/04/14 14:04:56;;;;;;;0.52;0.52;;;;;;;;;;4924915;29;20027;-78
2022/04/14 14:07:24;;;;;;;0.88;0.68;;;;;;;;;;4928787;29;20110;-78
2022/04/14 14:09:51;;;;;;;2.15;1.13;;;;;;;;;;4924611;29;20046;-79
2022/04/14 14:12:17;;;;;;;1.17;0.73;;;;;;;;;;4939524;29;20035;-80
2022/04/14 14:14:45;;;;;;;0.82;0.80;;;;;;;;;;4938178;29;20377;-80
2022/04/14 14:17:13;;;;;;;1.40;1.30;;;;;;;;;;4937455;29;20035;-79
2022/04/14 14:19:38;;;;;;;2.20;0.63;;;;;;;;;;4936762;29;20027;-79
2022/04/14 14:22:03;;;;;;;0.40;0.40;;;;;;;;;;4938409;29;20346;-80
2022/04/14 14:24:29;;;;;;;1.65;0.70;;;;;;;;;;4936848;29;20032;-80
2022/04/14 14:26:54;;;;;;;1.15;0.82;;;;;;;;;;4937825;29;20046;-80
2022/04/14 14:29:20;;;;;;;0.63;0.63;;;;;;;;;;4937157;29;20111;-79
2022/04/14 14:31:45;;;;;;;0.60;0.55;;;;;;;;;;4936565;29;20038;-79
2022/04/14 14:34:11;;;;;;;1.55;0.32;;;;;;;;;;4936265;29;20107;-80
2022/04/14 14:36:37;;;;;;;0.10;0.10;;;;;;;;;;4921127;29;20111;-79
2022/04/14 14:39:02;;;;;;;0.45;0.32;;;;;;;;;;4937296;29;20114;-79
2022/04/14 14:41:27;;;;;;;0.25;0.25;;;;;;;;;;4934605;29;20070;-79
2022/04/14 14:43:54;;;;;;;0.90;0.75;;;;;;;;;;4936781;29;20051;-79
2022/04/14 14:46:22;;;;;;;0.40;0.38;;;;;;;;;;4937709;29;20406;-80
2022/04/14 14:48:50;;;;;;;0.40;0.40;;;;;;;;;;4936472;29;20039;-80
2022/04/14 14:51:15;;;;;;;0.73;0.40;;;;;;;;;;4937132;29;20100;-79